createdAt,value
2018-05-31T00:01:17.308Z,55.89
2018-05-31T00:04:03.225Z,55.78
2018-05-31T00:06:36.411Z,55.34
2018-05-31T00:09:07.589Z,54.75
2018-05-31T00:11:43.052Z,54.41
2018-05-31T00:14:13.807Z,54.16
2018-05-31T00:16:45.521Z,53.86
2018-05-31T00:19:18.262Z,53.99
2018-05-31T00:21:48.813Z,54.19
2018-05-31T00:26:54.917Z,54.19
2018-05-31T00:29:25.993Z,54.26
2018-05-31T00:31:56.781Z,54.25
2018-05-31T00:34:29.377Z,53.99
2018-05-31T00:36:59.863Z,54.11
2018-05-31T00:39:30.138Z,54.16
2018-05-31T00:42:00.535Z,54.41
2018-05-31T00:44:31.596Z,54.57
2018-05-31T00:47:04.066Z,54.84
2018-05-31T00:49:36.739Z,55.25
2018-05-31T00:52:07.978Z,55.93
2018-05-31T00:54:38.434Z,56.14
2018-05-31T00:57:11.614Z,56.26
2018-05-31T00:59:42.478Z,55.92
2018-05-31T01:02:13.214Z,56.13
2018-05-31T01:04:43.580Z,56.62
2018-05-31T01:07:14.241Z,56.89
2018-05-31T01:09:52.160Z,56.89
2018-05-31T01:12:22.430Z,57.14
2018-05-31T01:14:58.014Z,57.79
2018-05-31T01:21:14.371Z,58.44
2018-05-31T01:23:44.929Z,58.70
2018-05-31T01:26:15.408Z,58.85
2018-05-31T01:28:46.774Z,58.81
2018-05-31T01:31:17.820Z,59.38
2018-05-31T01:33:48.746Z,59.88
2018-05-31T01:36:20.853Z,59.46
2018-05-31T01:38:52.859Z,58.98
2018-05-31T01:41:23.489Z,58.60
2018-05-31T01:43:56.810Z,58.42
2018-05-31T01:46:30.002Z,58.62
2018-05-31T01:49:00.500Z,58.68
2018-05-31T01:51:31.037Z,58.63
2018-05-31T01:54:02.354Z,58.58
2018-05-31T01:56:33.392Z,58.61
2018-05-31T01:59:03.982Z,58.58
2018-05-31T02:01:34.686Z,58.65
2018-05-31T02:04:16.371Z,58.66
2018-05-31T02:06:48.235Z,58.81
2018-05-31T02:09:26.349Z,58.96
2018-05-31T02:11:56.803Z,58.85
2018-05-31T02:14:27.623Z,58.79
2018-05-31T02:17:03.890Z,58.85
2018-05-31T02:19:34.350Z,58.75
2018-05-31T02:22:04.774Z,59.05
2018-05-31T02:24:35.202Z,59.30
2018-05-31T02:27:05.677Z,59.67
2018-05-31T02:29:36.099Z,59.99
2018-05-31T02:32:09.301Z,60.47
2018-05-31T02:34:40.526Z,60.38
2018-05-31T02:37:13.187Z,60.47
2018-05-31T02:43:38.247Z,61.23
2018-05-31T02:46:14.523Z,63.69
2018-05-31T02:48:49.228Z,62.53
2018-05-31T02:51:21.033Z,62.23
2018-05-31T02:54:24.282Z,63.22
2018-05-31T02:57:12.786Z,62.64
2018-05-31T03:02:41.327Z,62.57
2018-05-31T03:05:16.093Z,62.16
2018-05-31T03:07:47.503Z,61.74
2018-05-31T03:10:18.443Z,61.70
2018-05-31T03:12:48.761Z,61.49
2018-05-31T03:15:20.761Z,61.01
2018-05-31T03:17:52.607Z,60.85
2018-05-31T03:20:25.670Z,60.75
2018-05-31T03:22:56.733Z,60.47
2018-05-31T03:25:27.487Z,60.93
2018-05-31T03:28:12.149Z,60.88
2018-05-31T03:30:42.990Z,60.97
2018-05-31T03:33:21.590Z,60.83
2018-05-31T03:35:54.458Z,60.75
2018-05-31T03:38:25.562Z,61.23
2018-05-31T03:40:59.607Z,61.52
2018-05-31T03:43:31.943Z,61.44
2018-05-31T03:46:06.874Z,61.61
2018-05-31T03:48:37.484Z,62.09
2018-05-31T03:51:24.781Z,63.40
2018-05-31T03:53:55.003Z,63.68
2018-05-31T03:56:25.040Z,64.05
2018-05-31T03:58:55.496Z,65.14
2018-05-31T04:01:26.246Z,64.73
2018-05-31T04:03:57.278Z,62.85
2018-05-31T04:06:28.250Z,62.32
2018-05-31T04:09:00.268Z,61.63
2018-05-31T04:11:31.176Z,61.14
2018-05-31T04:14:02.164Z,60.68
2018-05-31T04:16:33.164Z,60.29
2018-05-31T04:19:04.902Z,60.22
2018-05-31T04:21:41.038Z,59.23
2018-05-31T04:24:11.654Z,58.34
2018-05-31T04:26:42.322Z,58.23
2018-05-31T04:29:13.165Z,58.13
2018-05-31T04:31:43.793Z,60.49
2018-05-31T04:34:14.122Z,59.92
2018-05-31T04:36:44.878Z,58.71
2018-05-31T04:39:15.706Z,57.84
2018-05-31T04:41:45.822Z,57.36
2018-05-31T04:44:16.528Z,56.99
2018-05-31T04:46:48.931Z,58.29
2018-05-31T04:49:20.362Z,57.86
2018-05-31T04:51:51.393Z,57.09
2018-05-31T04:54:22.179Z,57.98
2018-05-31T04:56:52.833Z,57.10
2018-05-31T04:59:23.150Z,56.11
2018-05-31T05:01:54.029Z,55.74
2018-05-31T05:04:25.183Z,55.93
2018-05-31T05:06:55.582Z,56.36
2018-05-31T05:09:27.010Z,56.74
2018-05-31T05:11:57.308Z,56.07
2018-05-31T05:14:27.676Z,54.89
2018-05-31T05:16:58.910Z,53.44
2018-05-31T05:19:29.575Z,53.47
2018-05-31T05:21:59.978Z,52.31
2018-05-31T05:24:30.606Z,51.92
2018-05-31T05:27:01.666Z,51.24
2018-05-31T05:29:31.997Z,50.35
2018-05-31T05:32:03.177Z,48.01
2018-05-31T05:34:33.652Z,48.26
2018-05-31T05:37:22.349Z,47.78
2018-05-31T05:39:58.270Z,45.58
2018-05-31T05:42:28.773Z,46.33
2018-05-31T05:44:59.144Z,45.76
2018-05-31T05:50:00.974Z,45.09
2018-05-31T05:52:31.494Z,44.50
2018-05-31T05:55:05.072Z,44.72
2018-05-31T05:57:35.903Z,45.04
2018-05-31T06:00:09.326Z,45.32
2018-05-31T06:02:44.176Z,46.02
2018-05-31T06:05:20.964Z,44.98
2018-05-31T06:07:53.269Z,44.63
2018-05-31T06:10:24.060Z,44.16
2018-05-31T06:13:02.216Z,44.34
2018-05-31T06:15:40.462Z,44.94
2018-05-31T06:18:12.469Z,45.93
2018-05-31T06:20:43.033Z,44.20
2018-05-31T06:23:15.222Z,42.76
2018-05-31T06:25:45.571Z,43.10
2018-05-31T06:28:18.858Z,43.15
2018-05-31T06:30:54.911Z,42.72
2018-05-31T06:33:26.718Z,42.03
2018-05-31T06:35:57.878Z,43.03
2018-05-31T06:38:42.315Z,42.91
2018-05-31T06:41:18.634Z,41.94
2018-05-31T06:43:51.225Z,40.15
2018-05-31T06:49:04.497Z,40.28
2018-05-31T06:51:38.351Z,40.10
2018-05-31T06:54:09.496Z,40.78
2018-05-31T06:56:43.580Z,41.23
2018-05-31T06:59:27.454Z,41.19
2018-05-31T07:02:08.487Z,40.95
2018-05-31T07:04:41.074Z,41.55
2018-05-31T07:07:14.440Z,42.01
2018-05-31T07:09:53.902Z,41.89
2018-05-31T07:12:28.337Z,41.19
2018-05-31T07:15:10.349Z,40.49
2018-05-31T07:17:49.009Z,39.86
2018-05-31T07:20:23.085Z,40.56
2018-05-31T07:22:54.433Z,40.28
2018-05-31T07:25:25.164Z,39.58
2018-05-31T07:27:58.406Z,40.12
2018-05-31T07:30:34.770Z,39.91
2018-05-31T07:33:08.600Z,39.60
2018-05-31T07:35:40.866Z,39.00
2018-05-31T07:38:19.482Z,38.33
2018-05-31T07:40:50.586Z,38.98
2018-05-31T07:43:22.843Z,39.15
2018-05-31T07:46:00.161Z,39.86
2018-05-31T07:51:22.049Z,40.87
2018-05-31T07:54:00.396Z,40.19
2018-05-31T07:57:03.211Z,39.44
2018-05-31T07:59:46.033Z,38.82
2018-05-31T08:02:19.697Z,38.62
2018-05-31T08:05:05.950Z,38.58
2018-05-31T08:07:49.847Z,38.66
2018-05-31T08:13:53.347Z,38.59
2018-05-31T08:16:54.547Z,38.20
2018-05-31T08:20:09.605Z,38.40
2018-05-31T08:22:56.192Z,37.62
2018-05-31T08:25:50.234Z,36.47
2018-05-31T08:28:27.338Z,35.84
2018-05-31T08:31:02.266Z,36.43
2018-05-31T08:33:42.370Z,36.19
2018-05-31T08:36:15.717Z,35.23
2018-05-31T08:38:48.638Z,34.77
2018-05-31T08:41:21.634Z,34.32
2018-05-31T08:44:02.380Z,34.48
2018-05-31T08:46:35.337Z,33.55
2018-05-31T08:49:08.354Z,32.70
2018-05-31T08:51:42.548Z,32.45
2018-05-31T08:54:14.023Z,32.91
2018-05-31T08:56:50.695Z,33.31
2018-05-31T08:59:25.733Z,35.01
2018-05-31T09:02:01.835Z,35.24
2018-05-31T09:04:35.470Z,35.14
2018-05-31T09:07:08.049Z,34.92
2018-05-31T09:09:40.026Z,34.47
2018-05-31T09:12:17.747Z,35.43
2018-05-31T09:14:49.030Z,35.58
2018-05-31T09:17:20.126Z,35.58
2018-05-31T09:19:54.869Z,35.55
2018-05-31T09:22:31.626Z,36.31
2018-05-31T09:25:08.916Z,36.45
2018-05-31T09:27:40.883Z,37.26
2018-05-31T09:30:20.641Z,37.64
2018-05-31T09:32:53.096Z,37.43
2018-05-31T09:35:25.935Z,37.28
2018-05-31T09:37:59.595Z,37.61
2018-05-31T09:40:33.341Z,37.46
2018-05-31T09:43:08.081Z,37.58
2018-05-31T09:45:42.803Z,37.76
2018-05-31T09:48:14.074Z,37.55
2018-05-31T09:50:47.287Z,37.74
2018-05-31T09:53:19.338Z,37.15
2018-05-31T09:55:54.668Z,37.60
2018-05-31T09:58:27.665Z,38.24
2018-05-31T10:00:58.889Z,37.95
2018-05-31T10:03:32.896Z,37.01
2018-05-31T10:06:10.058Z,36.89
2018-05-31T10:08:42.456Z,37.42
2018-05-31T10:11:16.087Z,38.69
2018-05-31T10:13:59.494Z,39.70
2018-05-31T10:16:33.951Z,40.37
2018-05-31T10:19:09.783Z,39.76
2018-05-31T10:21:42.073Z,38.98
2018-05-31T10:24:13.284Z,39.56
2018-05-31T10:26:43.963Z,40.94
2018-05-31T10:29:14.548Z,41.06
2018-05-31T10:31:45.578Z,40.72
2018-05-31T10:34:22.641Z,39.93
2018-05-31T10:36:54.247Z,40.39
2018-05-31T10:39:25.354Z,40.36
2018-05-31T10:41:55.869Z,39.62
2018-05-31T10:44:28.341Z,39.87
2018-05-31T10:47:08.348Z,39.50
2018-05-31T10:50:10.048Z,39.82
2018-05-31T10:52:49.078Z,39.91
2018-05-31T10:55:21.327Z,39.96
2018-05-31T10:57:54.966Z,40.28
2018-05-31T11:00:26.662Z,39.96
2018-05-31T11:02:57.746Z,39.80
2018-05-31T11:05:29.832Z,38.47
2018-05-31T11:08:10.147Z,36.74
2018-05-31T11:10:52.815Z,35.52
2018-05-31T11:13:23.616Z,36.60
2018-05-31T11:16:05.026Z,36.88
2018-05-31T11:18:44.042Z,35.61
2018-05-31T11:21:18.547Z,33.86
2018-05-31T11:23:51.107Z,34.37
2018-05-31T11:26:22.479Z,33.25
2018-05-31T11:28:53.088Z,32.53
2018-05-31T11:31:24.396Z,31.53
2018-05-31T11:33:55.168Z,31.48
2018-05-31T11:36:25.828Z,31.87
2018-05-31T11:38:56.355Z,31.90
2018-05-31T11:41:26.993Z,31.14
2018-05-31T11:44:04.703Z,33.29
2018-05-31T11:46:35.873Z,34.33
2018-05-31T11:49:06.328Z,35.12
2018-05-31T11:51:37.132Z,34.84
2018-05-31T11:54:07.648Z,34.25
2018-05-31T11:56:38.078Z,33.66
2018-05-31T11:59:10.390Z,33.27
2018-05-31T12:01:42.554Z,34.46
2018-05-31T12:04:13.264Z,33.66
2018-05-31T12:09:32.980Z,33.71
2018-05-31T12:12:04.208Z,32.77
2018-05-31T12:14:34.869Z,32.22
2018-05-31T12:17:06.267Z,31.59
2018-05-31T12:19:37.814Z,30.09
2018-05-31T12:22:08.676Z,29.24
2018-05-31T12:24:42.578Z,28.71
2018-05-31T12:27:14.016Z,28.22
2018-05-31T12:29:45.826Z,27.54
2018-05-31T12:32:17.938Z,28.28
2018-05-31T12:34:55.154Z,27.17
2018-05-31T12:37:27.816Z,28.88
2018-05-31T12:40:01.086Z,29.14
2018-05-31T12:42:35.061Z,30.40
2018-05-31T12:45:29.838Z,30.74
2018-05-31T12:48:06.292Z,32.03
2018-05-31T12:50:39.617Z,32.74
2018-05-31T12:53:12.766Z,33.18
2018-05-31T12:55:43.732Z,32.53
2018-05-31T12:58:14.593Z,32.48
2018-05-31T13:00:45.931Z,32.69
2018-05-31T13:03:16.580Z,33.01
2018-05-31T13:05:48.488Z,33.10
2018-05-31T13:08:19.661Z,32.25
2018-05-31T13:10:53.444Z,31.87
2018-05-31T13:13:24.141Z,31.61
2018-05-31T13:15:55.987Z,31.72
2018-05-31T13:18:27.264Z,31.03
2018-05-31T13:21:03.431Z,30.91
2018-05-31T13:23:38.738Z,30.41
2018-05-31T13:26:12.794Z,30.48
2018-05-31T13:28:47.771Z,29.55
2018-05-31T13:31:27.961Z,30.43
2018-05-31T13:34:03.789Z,29.66
2018-05-31T13:36:38.691Z,29.59
2018-05-31T13:39:16.622Z,29.72
2018-05-31T13:41:50.843Z,29.71
2018-05-31T13:44:27.051Z,29.58
2018-05-31T13:47:13.963Z,29.16
2018-05-31T13:53:24.125Z,32.09
2018-05-31T13:56:09.266Z,33.23
2018-05-31T13:58:50.005Z,34.23
2018-05-31T14:01:28.561Z,35.32
2018-05-31T14:04:00.890Z,34.69
2018-05-31T14:06:31.746Z,33.32
2018-05-31T14:09:02.413Z,32.40
2018-05-31T14:11:34.706Z,32.19
2018-05-31T14:14:05.168Z,31.34
2018-05-31T14:16:36.433Z,30.30
2018-05-31T14:19:09.623Z,29.77
2018-05-31T14:21:40.567Z,29.95
2018-05-31T14:24:11.245Z,30.01
2018-05-31T14:26:43.301Z,29.33
2018-05-31T14:29:17.459Z,29.55
2018-05-31T14:32:02.449Z,29.44
2018-05-31T14:34:42.024Z,28.84
2018-05-31T14:37:13.710Z,28.61
2018-05-31T14:42:58.314Z,30.44
2018-05-31T14:45:42.239Z,30.21
2018-05-31T14:48:16.634Z,30.41
2018-05-31T14:50:47.001Z,30.13
2018-05-31T14:53:17.453Z,29.93
2018-05-31T14:55:52.151Z,29.89
2018-05-31T14:58:24.439Z,29.83
2018-05-31T15:00:57.858Z,29.58
2018-05-31T15:03:28.267Z,30.04
2018-05-31T15:06:00.892Z,30.04
2018-05-31T15:08:31.775Z,29.42
2018-05-31T15:11:14.064Z,29.81
2018-05-31T15:14:03.017Z,29.64
2018-05-31T15:16:36.780Z,29.34
2018-05-31T15:19:13.350Z,28.94
2018-05-31T15:21:44.495Z,29.28
2018-05-31T15:24:18.904Z,28.93
2018-05-31T15:26:51.216Z,29.54
2018-05-31T15:29:26.812Z,30.47
2018-05-31T15:32:12.652Z,31.12
2018-05-31T15:34:51.965Z,31.03
2018-05-31T15:37:22.846Z,30.73
2018-05-31T15:39:56.516Z,31.26
2018-05-31T15:42:29.676Z,30.85
2018-05-31T15:45:06.258Z,31.30
2018-05-31T15:47:43.953Z,32.38
2018-05-31T15:50:22.504Z,33.17
2018-05-31T15:52:57.894Z,33.29
2018-05-31T15:55:30.926Z,34.07
2018-05-31T16:00:51.512Z,34.03
2018-05-31T16:03:38.060Z,33.71
2018-05-31T16:06:09.802Z,33.42
2018-05-31T16:08:40.197Z,34.16
2018-05-31T16:11:10.858Z,34.06
2018-05-31T16:13:51.779Z,34.93
2018-05-31T16:16:22.788Z,35.69
2018-05-31T16:18:54.321Z,34.82
2018-05-31T16:21:30.429Z,34.81
2018-05-31T16:24:00.878Z,35.42
2018-05-31T16:26:35.386Z,35.54
2018-05-31T16:29:09.008Z,34.57
2018-05-31T16:31:44.600Z,34.32
2018-05-31T16:34:18.731Z,33.82
2018-05-31T16:36:58.529Z,34.25
2018-05-31T16:39:29.063Z,35.14
2018-05-31T16:42:01.251Z,35.33
2018-05-31T16:44:31.609Z,35.47
2018-05-31T16:47:07.025Z,35.63
2018-05-31T16:49:41.299Z,36.61
2018-05-31T16:52:15.392Z,36.74
2018-05-31T16:55:01.952Z,36.67
2018-05-31T16:57:33.865Z,36.54
2018-05-31T17:00:10.483Z,36.59
2018-05-31T17:02:45.168Z,37.29
2018-05-31T17:05:17.413Z,37.23
2018-05-31T17:07:48.771Z,37.51
2018-05-31T17:10:28.963Z,38.14
2018-05-31T17:13:02.194Z,37.96
2018-05-31T17:15:33.294Z,38.02
2018-05-31T17:18:05.394Z,37.98
2018-05-31T17:20:38.989Z,37.99
2018-05-31T17:23:18.132Z,37.41
2018-05-31T17:25:49.946Z,37.29
2018-05-31T17:28:23.482Z,37.35
2018-05-31T17:31:05.502Z,37.10
2018-05-31T17:33:46.105Z,37.29
2018-05-31T17:36:27.265Z,37.68
2018-05-31T17:38:58.518Z,38.23
2018-05-31T17:41:30.439Z,38.30
2018-05-31T17:44:04.697Z,38.49
2018-05-31T17:46:41.064Z,38.88
2018-05-31T17:49:13.476Z,38.94
2018-05-31T17:51:53.085Z,39.57
2018-05-31T17:54:47.067Z,40.14
2018-05-31T17:57:21.944Z,40.84
2018-05-31T17:59:55.286Z,41.70
2018-05-31T18:02:29.297Z,41.80
2018-05-31T18:07:58.023Z,41.20
2018-05-31T18:10:35.686Z,41.17
2018-05-31T18:13:17.501Z,41.90
2018-05-31T18:16:07.129Z,42.73
2018-05-31T18:18:38.268Z,43.11
2018-05-31T18:21:12.238Z,42.62
2018-05-31T18:23:46.043Z,42.72
2018-05-31T18:26:22.455Z,42.60
2018-05-31T18:28:53.416Z,42.40
2018-05-31T18:31:36.745Z,42.49
2018-05-31T18:34:12.984Z,42.42
2018-05-31T18:36:51.110Z,42.46
2018-05-31T18:39:38.916Z,42.46
2018-05-31T18:42:13.575Z,42.55
2018-05-31T18:44:48.947Z,42.99
2018-05-31T18:47:21.209Z,43.37
2018-05-31T18:49:55.544Z,43.86
2018-05-31T18:52:28.522Z,44.10
2018-05-31T18:55:33.511Z,44.08
2018-05-31T18:58:37.897Z,43.89
2018-05-31T19:01:08.900Z,43.74
2018-05-31T19:03:39.998Z,43.82
2018-05-31T19:06:10.554Z,43.65
2018-05-31T19:08:44.395Z,43.78
2018-05-31T19:12:31.821Z,43.83
2018-05-31T19:15:21.768Z,44.56
2018-05-31T19:18:12.599Z,44.58
2018-05-31T19:20:50.394Z,44.44
2018-05-31T19:23:22.476Z,44.45
2018-05-31T19:25:53.749Z,44.12
2018-05-31T19:28:25.764Z,44.49
2018-05-31T19:31:17.305Z,44.63
2018-05-31T19:33:50.900Z,44.89
2018-05-31T19:37:31.979Z,45.02
2018-05-31T19:40:05.647Z,45.66
2018-05-31T19:42:48.975Z,46.02
2018-05-31T19:45:22.189Z,46.13
2018-05-31T19:47:54.155Z,46.08
2018-05-31T19:50:38.645Z,46.17
2018-05-31T19:54:13.104Z,46.54
2018-05-31T19:56:50.924Z,47.03
2018-05-31T20:05:46.449Z,46.90
2018-05-31T20:08:16.900Z,47.89
2018-05-31T20:10:48.596Z,48.08
2018-05-31T20:13:19.642Z,47.68
2018-05-31T20:15:50.637Z,47.51
2018-05-31T20:21:05.145Z,47.62
2018-05-31T20:23:37.084Z,47.25
2018-05-31T20:26:08.491Z,47.18
2018-05-31T20:28:44.351Z,47.36
2018-05-31T20:31:20.988Z,47.69
2018-05-31T20:34:02.973Z,47.85
2018-05-31T20:36:35.448Z,48.06
2018-05-31T20:39:16.767Z,47.64
2018-05-31T20:41:50.216Z,47.75
2018-05-31T20:44:22.858Z,48.17
2018-05-31T20:46:54.800Z,48.30
2018-05-31T20:49:31.763Z,48.52
2018-05-31T20:52:14.711Z,48.85
2018-05-31T20:54:48.278Z,49.16
2018-05-31T20:57:20.460Z,49.26
2018-05-31T20:59:53.864Z,49.32
2018-05-31T21:02:31.740Z,48.93
2018-05-31T21:05:04.166Z,48.56
2018-05-31T21:07:37.049Z,48.46
2018-05-31T21:10:12.769Z,48.67
2018-05-31T21:13:08.698Z,48.27
2018-05-31T21:15:54.997Z,48.08
2018-05-31T21:18:27.343Z,48.02
2018-05-31T21:20:58.522Z,48.04
2018-05-31T21:23:35.455Z,48.16
2018-05-31T21:26:05.912Z,48.45
2018-05-31T21:31:24.432Z,48.19
2018-05-31T21:33:57.452Z,48.11
2018-05-31T21:36:28.208Z,48.23
2018-05-31T21:38:59.224Z,48.36
2018-05-31T21:41:31.381Z,48.41
2018-05-31T21:44:02.303Z,48.27
2018-05-31T21:46:44.397Z,48.43
2018-05-31T21:49:23.084Z,48.37
2018-05-31T21:51:55.162Z,48.61
2018-05-31T21:54:27.119Z,48.95
2018-05-31T21:56:59.196Z,48.99
2018-05-31T21:59:42.373Z,49.28
2018-05-31T22:02:14.385Z,50.11
2018-05-31T22:04:45.345Z,50.68
2018-05-31T22:07:16.604Z,51.35
2018-05-31T22:09:47.427Z,51.62
2018-05-31T22:12:34.229Z,51.48
2018-05-31T22:15:08.932Z,51.76
2018-05-31T22:17:39.919Z,52.60
2018-05-31T22:20:10.730Z,52.41
2018-05-31T22:22:41.299Z,52.76
2018-05-31T22:25:12.159Z,52.84
2018-05-31T22:30:30.951Z,53.39
2018-05-31T22:33:07.467Z,53.69
2018-05-31T22:35:39.221Z,53.96
2018-05-31T22:38:09.653Z,54.19
2018-05-31T22:40:42.273Z,54.76
2018-05-31T22:43:12.947Z,55.19
2018-05-31T22:45:43.553Z,54.82
2018-05-31T22:48:14.288Z,54.86
2018-05-31T22:50:45.321Z,55.10
2018-05-31T22:53:17.605Z,55.38
2018-05-31T22:55:52.698Z,55.57
2018-05-31T22:58:24.973Z,55.38
2018-05-31T23:00:55.630Z,54.97
2018-05-31T23:03:26.154Z,55.45
2018-05-31T23:05:57.756Z,55.09
2018-05-31T23:11:21.973Z,54.51
2018-05-31T23:13:54.007Z,54.73
2018-05-31T23:16:26.335Z,55.38
2018-05-31T23:18:59.097Z,55.57
2018-05-31T23:21:31.552Z,55.23
2018-05-31T23:24:02.112Z,54.56
2018-05-31T23:26:36.105Z,54.42
2018-05-31T23:29:10.090Z,54.91
2018-05-31T23:31:41.277Z,55.38
2018-05-31T23:34:12.063Z,55.64
2018-05-31T23:36:42.908Z,55.64
2018-05-31T23:39:13.447Z,55.71
2018-05-31T23:41:44.470Z,56.13
2018-05-31T23:44:14.827Z,56.14
2018-05-31T23:46:50.515Z,55.73
2018-05-31T23:49:20.737Z,56.00
2018-05-31T23:51:51.011Z,55.89
2018-05-31T23:54:21.691Z,55.65
2018-05-31T23:56:52.897Z,55.22
2018-05-31T23:59:23.067Z,55.98
